sensor_id;sensor_type;location;lat;lon;timestamp;pressure;altitude;pressure_sealevel;temperature;humidity
54736;BME280;40632;51.442;11.936;2022-09-09T00:01:15;99932.50;;;24.36;56.60
54736;BME280;40632;51.442;11.936;2022-09-09T00:03:49;99928.59;;;24.65;55.91
54736;BME280;40632;51.442;11.936;2022-09-09T00:06:20;99928.38;;;24.53;56.32
54736;BME280;40632;51.442;11.936;2022-09-09T00:08:54;99924.66;;;24.54;56.82
54736;BME280;40632;51.442;11.936;2022-09-09T00:11:26;99923.41;;;24.77;55.85
54736;BME280;40632;51.442;11.936;2022-09-09T00:13:55;99929.97;;;25.01;54.97
54736;BME280;40632;51.442;11.936;2022-09-09T00:16:24;99934.13;;;24.97;55.47
54736;BME280;40632;51.442;11.936;2022-09-09T00:18:57;99941.56;;;24.22;57.72
54736;BME280;40632;51.442;11.936;2022-09-09T00:21:30;99936.19;;;24.08;57.15
54736;BME280;40632;51.442;11.936;2022-09-09T00:24:04;99938.88;;;24.48;56.63
54736;BME280;40632;51.442;11.936;2022-09-09T00:26:38;99939.91;;;24.87;55.49
54736;BME280;40632;51.442;11.936;2022-09-09T00:29:12;99929.81;;;24.76;55.93
54736;BME280;40632;51.442;11.936;2022-09-09T00:31:40;99925.81;;;25.05;55.47
54736;BME280;40632;51.442;11.936;2022-09-09T00:34:12;99932.47;;;24.49;55.80
54736;BME280;40632;51.442;11.936;2022-09-09T00:36:39;99928.97;;;24.42;56.54
54736;BME280;40632;51.442;11.936;2022-09-09T00:39:12;99922.56;;;24.30;57.26
54736;BME280;40632;51.442;11.936;2022-09-09T00:41:46;99917.63;;;24.73;55.76
54736;BME280;40632;51.442;11.936;2022-09-09T00:44:23;99924.22;;;24.51;56.27
54736;BME280;40632;51.442;11.936;2022-09-09T00:46:59;99926.09;;;24.64;55.68
54736;BME280;40632;51.442;11.936;2022-09-09T00:49:39;99918.81;;;24.91;55.06
54736;BME280;40632;51.442;11.936;2022-09-09T00:52:20;99922.56;;;24.83;55.16
54736;BME280;40632;51.442;11.936;2022-09-09T00:54:55;99931.59;;;25.09;54.56
54736;BME280;40632;51.442;11.936;2022-09-09T00:57:28;99933.06;;;24.98;54.63
54736;BME280;40632;51.442;11.936;2022-09-09T01:00:14;99930.41;;;24.78;55.25
54736;BME280;40632;51.442;11.936;2022-09-09T01:02:50;99934.91;;;25.04;54.58
54736;BME280;40632;51.442;11.936;2022-09-09T01:05:20;99924.59;;;25.01;54.78
54736;BME280;40632;51.442;11.936;2022-09-09T01:07:49;99925.66;;;24.80;54.86
54736;BME280;40632;51.442;11.936;2022-09-09T01:10:22;99932.91;;;24.73;55.51
54736;BME280;40632;51.442;11.936;2022-09-09T01:12:52;99938.69;;;24.83;54.79
54736;BME280;40632;51.442;11.936;2022-09-09T01:15:24;99938.28;;;24.53;55.80
54736;BME280;40632;51.442;11.936;2022-09-09T01:17:55;99923.41;;;24.50;55.46
54736;BME280;40632;51.442;11.936;2022-09-09T01:20:26;99929.78;;;24.16;56.49
54736;BME280;40632;51.442;11.936;2022-09-09T01:23:11;99926.03;;;24.04;56.71
54736;BME280;40632;51.442;11.936;2022-09-09T01:28:39;99928.53;;;24.12;56.98
54736;BME280;40632;51.442;11.936;2022-09-09T01:31:06;99925.06;;;24.31;56.52
54736;BME280;40632;51.442;11.936;2022-09-09T01:33:34;99925.88;;;24.12;56.56
54736;BME280;40632;51.442;11.936;2022-09-09T01:36:04;99932.06;;;23.44;58.27
54736;BME280;40632;51.442;11.936;2022-09-09T01:38:31;99927.09;;;24.16;56.63
54736;BME280;40632;51.442;11.936;2022-09-09T01:40:57;99921.81;;;23.61;57.96
54736;BME280;40632;51.442;11.936;2022-09-09T01:43:23;99916.75;;;23.93;57.66
54736;BME280;40632;51.442;11.936;2022-09-09T01:45:55;99916.38;;;24.03;56.77
54736;BME280;40632;51.442;11.936;2022-09-09T01:48:22;99918.25;;;24.22;56.69
54736;BME280;40632;51.442;11.936;2022-09-09T01:50:48;99906.69;;;24.62;55.12
54736;BME280;40632;51.442;11.936;2022-09-09T01:53:15;99912.16;;;23.73;57.85
54736;BME280;40632;51.442;11.936;2022-09-09T01:55:45;99902.56;;;24.59;55.42
54736;BME280;40632;51.442;11.936;2022-09-09T01:58:25;99905.19;;;24.86;54.60
54736;BME280;40632;51.442;11.936;2022-09-09T02:01:09;99903.44;;;25.18;54.32
54736;BME280;40632;51.442;11.936;2022-09-09T02:03:45;99902.50;;;24.86;54.14
54736;BME280;40632;51.442;11.936;2022-09-09T02:06:19;99914.66;;;25.02;54.61
54736;BME280;40632;51.442;11.936;2022-09-09T02:08:50;99919.59;;;25.11;54.16
54736;BME280;40632;51.442;11.936;2022-09-09T02:11:18;99915.25;;;25.17;54.05
54736;BME280;40632;51.442;11.936;2022-09-09T02:13:46;99917.59;;;24.80;54.67
54736;BME280;40632;51.442;11.936;2022-09-09T02:16:20;99930.84;;;24.62;55.26
54736;BME280;40632;51.442;11.936;2022-09-09T02:18:49;99923.41;;;24.50;55.92
54736;BME280;40632;51.442;11.936;2022-09-09T02:21:17;99924.22;;;24.44;55.36
54736;BME280;40632;51.442;11.936;2022-09-09T02:23:44;99930.41;;;24.45;55.39
54736;BME280;40632;51.442;11.936;2022-09-09T02:26:13;99928.13;;;24.88;54.32
54736;BME280;40632;51.442;11.936;2022-09-09T02:28:40;99919.66;;;24.91;54.71
54736;BME280;40632;51.442;11.936;2022-09-09T02:31:06;99933.25;;;25.10;54.04
54736;BME280;40632;51.442;11.936;2022-09-09T02:33:38;99931.03;;;24.87;54.88
54736;BME280;40632;51.442;11.936;2022-09-09T02:36:06;99925.34;;;25.22;53.63
54736;BME280;40632;51.442;11.936;2022-09-09T02:38:37;99934.31;;;25.02;54.12
54736;BME280;40632;51.442;11.936;2022-09-09T02:41:04;99923.13;;;25.05;54.02
54736;BME280;40632;51.442;11.936;2022-09-09T02:43:31;99921.22;;;25.19;54.17
54736;BME280;40632;51.442;11.936;2022-09-09T02:46:03;99922.44;;;25.23;53.99
54736;BME280;40632;51.442;11.936;2022-09-09T02:48:40;99927.84;;;25.30;53.79
54736;BME280;40632;51.442;11.936;2022-09-09T02:51:16;99930.13;;;25.26;53.74
54736;BME280;40632;51.442;11.936;2022-09-09T02:53:49;99933.63;;;25.20;53.70
54736;BME280;40632;51.442;11.936;2022-09-09T02:56:20;99929.97;;;24.95;54.71
54736;BME280;40632;51.442;11.936;2022-09-09T02:58:47;99928.69;;;25.04;54.29
54736;BME280;40632;51.442;11.936;2022-09-09T03:01:13;99938.03;;;24.95;54.35
54736;BME280;40632;51.442;11.936;2022-09-09T03:03:41;99934.53;;;24.87;54.82
54736;BME280;40632;51.442;11.936;2022-09-09T03:06:07;99931.47;;;24.77;55.20
54736;BME280;40632;51.442;11.936;2022-09-09T03:08:33;99935.53;;;25.13;54.22
54736;BME280;40632;51.442;11.936;2022-09-09T03:10:59;99936.56;;;25.05;54.79
54736;BME280;40632;51.442;11.936;2022-09-09T03:13:25;99942.13;;;25.10;54.40
54736;BME280;40632;51.442;11.936;2022-09-09T03:15:50;99940.03;;;25.19;54.04
54736;BME280;40632;51.442;11.936;2022-09-09T03:18:16;99938.38;;;25.18;54.43
54736;BME280;40632;51.442;11.936;2022-09-09T03:20:45;99949.13;;;25.18;54.25
54736;BME280;40632;51.442;11.936;2022-09-09T03:23:11;99937.34;;;25.12;55.05
54736;BME280;40632;51.442;11.936;2022-09-09T03:25:37;99940.50;;;25.09;54.63
54736;BME280;40632;51.442;11.936;2022-09-09T03:28:02;99936.00;;;24.83;55.75
54736;BME280;40632;51.442;11.936;2022-09-09T03:30:28;99939.94;;;24.74;55.96
54736;BME280;40632;51.442;11.936;2022-09-09T03:32:53;99940.75;;;24.81;55.37
54736;BME280;40632;51.442;11.936;2022-09-09T03:35:19;99931.38;;;25.10;55.02
54736;BME280;40632;51.442;11.936;2022-09-09T03:37:47;99928.94;;;24.96;55.22
54736;BME280;40632;51.442;11.936;2022-09-09T03:40:13;99928.28;;;25.00;55.52
54736;BME280;40632;51.442;11.936;2022-09-09T03:42:39;99932.44;;;25.09;55.05
54736;BME280;40632;51.442;11.936;2022-09-09T03:45:07;99932.84;;;25.00;55.01
54736;BME280;40632;51.442;11.936;2022-09-09T03:47:33;99925.19;;;25.03;55.32
54736;BME280;40632;51.442;11.936;2022-09-09T03:49:59;99920.84;;;25.09;55.24
54736;BME280;40632;51.442;11.936;2022-09-09T03:52:24;99921.28;;;24.99;55.25
54736;BME280;40632;51.442;11.936;2022-09-09T03:54:52;99920.47;;;24.99;55.77
54736;BME280;40632;51.442;11.936;2022-09-09T03:57:18;99928.09;;;25.02;55.37
54736;BME280;40632;51.442;11.936;2022-09-09T03:59:43;99926.41;;;25.07;55.39
54736;BME280;40632;51.442;11.936;2022-09-09T04:02:09;99923.63;;;24.55;56.61
54736;BME280;40632;51.442;11.936;2022-09-09T04:04:35;99925.88;;;24.79;56.06
54736;BME280;40632;51.442;11.936;2022-09-09T04:07:01;99924.41;;;24.89;56.02
54736;BME280;40632;51.442;11.936;2022-09-09T04:09:26;99918.22;;;24.89;55.57
54736;BME280;40632;51.442;11.936;2022-09-09T04:11:55;99920.72;;;24.50;56.56
54736;BME280;40632;51.442;11.936;2022-09-09T04:14:20;99938.91;;;24.55;56.22
54736;BME280;40632;51.442;11.936;2022-09-09T04:16:46;99935.78;;;24.78;55.62
54736;BME280;40632;51.442;11.936;2022-09-09T04:19:12;99939.28;;;24.92;55.38
54736;BME280;40632;51.442;11.936;2022-09-09T04:21:38;99939.69;;;24.89;55.48
54736;BME280;40632;51.442;11.936;2022-09-09T04:24:04;99930.16;;;25.13;55.41
54736;BME280;40632;51.442;11.936;2022-09-09T04:26:29;99937.56;;;25.31;54.60
54736;BME280;40632;51.442;11.936;2022-09-09T04:28:58;99938.78;;;25.28;54.76
54736;BME280;40632;51.442;11.936;2022-09-09T04:31:23;99938.81;;;25.08;54.99
54736;BME280;40632;51.442;11.936;2022-09-09T04:33:49;99951.19;;;25.29;54.35
54736;BME280;40632;51.442;11.936;2022-09-09T04:36:15;99937.22;;;25.59;53.58
54736;BME280;40632;51.442;11.936;2022-09-09T04:38:41;99937.84;;;25.61;53.42
54736;BME280;40632;51.442;11.936;2022-09-09T04:41:06;99941.03;;;25.38;54.05
54736;BME280;40632;51.442;11.936;2022-09-09T04:43:32;99945.25;;;25.01;55.05
54736;BME280;40632;51.442;11.936;2022-09-09T04:46:01;99948.56;;;25.03;55.11
54736;BME280;40632;51.442;11.936;2022-09-09T04:48:26;99945.22;;;25.27;54.87
54736;BME280;40632;51.442;11.936;2022-09-09T04:50:56;99943.16;;;25.68;53.87
54736;BME280;40632;51.442;11.936;2022-09-09T04:53:22;99939.25;;;25.64;53.70
54736;BME280;40632;51.442;11.936;2022-09-09T04:55:48;99936.25;;;25.85;53.34
54736;BME280;40632;51.442;11.936;2022-09-09T04:58:14;99948.34;;;25.69;53.78
54736;BME280;40632;51.442;11.936;2022-09-09T05:00:39;99941.38;;;25.55;54.43
54736;BME280;40632;51.442;11.936;2022-09-09T05:03:08;99940.81;;;25.85;53.79
54736;BME280;40632;51.442;11.936;2022-09-09T05:05:34;99948.22;;;25.90;53.37
54736;BME280;40632;51.442;11.936;2022-09-09T05:08:01;99945.41;;;25.78;54.15
54736;BME280;40632;51.442;11.936;2022-09-09T05:10:26;99941.81;;;25.97;53.92
54736;BME280;40632;51.442;11.936;2022-09-09T05:12:52;99948.91;;;26.17;53.40
54736;BME280;40632;51.442;11.936;2022-09-09T05:15:18;99950.47;;;25.99;53.69
54736;BME280;40632;51.442;11.936;2022-09-09T05:17:43;99946.97;;;25.99;53.73
54736;BME280;40632;51.442;11.936;2022-09-09T05:20:12;99944.41;;;25.72;54.48
54736;BME280;40632;51.442;11.936;2022-09-09T05:22:37;99954.91;;;25.74;54.59
54736;BME280;40632;51.442;11.936;2022-09-09T05:25:04;99957.91;;;25.59;54.50
54736;BME280;40632;51.442;11.936;2022-09-09T05:27:29;99959.47;;;25.80;54.08
54736;BME280;40632;51.442;11.936;2022-09-09T05:29:55;99958.53;;;26.06;53.73
54736;BME280;40632;51.442;11.936;2022-09-09T05:32:20;99956.22;;;26.10;53.20
54736;BME280;40632;51.442;11.936;2022-09-09T05:34:46;99951.13;;;26.27;53.02
54736;BME280;40632;51.442;11.936;2022-09-09T05:37:14;99954.56;;;26.09;53.32
54736;BME280;40632;51.442;11.936;2022-09-09T05:39:40;99952.78;;;26.28;53.10
54736;BME280;40632;51.442;11.936;2022-09-09T05:42:05;99942.28;;;26.44;52.47
54736;BME280;40632;51.442;11.936;2022-09-09T05:44:31;99945.44;;;26.10;53.47
54736;BME280;40632;51.442;11.936;2022-09-09T05:46:56;99949.19;;;26.59;52.58
54736;BME280;40632;51.442;11.936;2022-09-09T05:49:22;99953.03;;;26.95;51.21
54736;BME280;40632;51.442;11.936;2022-09-09T05:51:47;99959.25;;;26.70;52.29
54736;BME280;40632;51.442;11.936;2022-09-09T05:54:16;99957.63;;;26.44;53.19
54736;BME280;40632;51.442;11.936;2022-09-09T05:56:41;99950.63;;;27.24;51.75
54736;BME280;40632;51.442;11.936;2022-09-09T05:59:07;99959.94;;;26.66;52.33
54736;BME280;40632;51.442;11.936;2022-09-09T06:01:35;99968.97;;;27.15;51.86
54736;BME280;40632;51.442;11.936;2022-09-09T06:04:02;99978.00;;;26.58;52.77
54736;BME280;40632;51.442;11.936;2022-09-09T06:06:30;99970.91;;;27.08;52.69
54736;BME280;40632;51.442;11.936;2022-09-09T06:08:57;99975.00;;;27.54;51.24
54736;BME280;40632;51.442;11.936;2022-09-09T06:11:27;99967.78;;;26.92;52.33
54736;BME280;40632;51.442;11.936;2022-09-09T06:13:53;99970.84;;;27.14;51.65
54736;BME280;40632;51.442;11.936;2022-09-09T06:16:20;99963.69;;;27.08;51.63
54736;BME280;40632;51.442;11.936;2022-09-09T06:18:46;99980.00;;;27.13;51.22
54736;BME280;40632;51.442;11.936;2022-09-09T06:21:19;99974.41;;;27.33;51.06
54736;BME280;40632;51.442;11.936;2022-09-09T06:23:45;99973.25;;;27.78;50.21
54736;BME280;40632;51.442;11.936;2022-09-09T06:26:13;99968.19;;;28.00;49.48
54736;BME280;40632;51.442;11.936;2022-09-09T06:28:41;99963.72;;;27.94;49.85
54736;BME280;40632;51.442;11.936;2022-09-09T06:31:09;99961.88;;;28.06;49.96
54736;BME280;40632;51.442;11.936;2022-09-09T06:33:36;99961.25;;;28.04;50.00
54736;BME280;40632;51.442;11.936;2022-09-09T06:36:04;99967.72;;;27.85;50.00
54736;BME280;40632;51.442;11.936;2022-09-09T06:38:29;99972.56;;;28.55;48.32
54736;BME280;40632;51.442;11.936;2022-09-09T06:40:56;99962.88;;;28.36;48.63
54736;BME280;40632;51.442;11.936;2022-09-09T06:43:22;99961.09;;;28.29;48.93
54736;BME280;40632;51.442;11.936;2022-09-09T06:45:55;99966.34;;;28.78;48.27
54736;BME280;40632;51.442;11.936;2022-09-09T06:48:21;99960.81;;;28.73;48.29
54736;BME280;40632;51.442;11.936;2022-09-09T06:50:47;99970.47;;;29.16;47.20
54736;BME280;40632;51.442;11.936;2022-09-09T06:53:16;99960.91;;;29.37;47.04
54736;BME280;40632;51.442;11.936;2022-09-09T06:55:41;99961.38;;;29.34;47.11
54736;BME280;40632;51.442;11.936;2022-09-09T06:58:08;99962.84;;;29.54;46.53
54736;BME280;40632;51.442;11.936;2022-09-09T07:00:33;99963.16;;;29.98;45.67
54736;BME280;40632;51.442;11.936;2022-09-09T07:03:01;99963.84;;;29.00;47.58
54736;BME280;40632;51.442;11.936;2022-09-09T07:05:27;99969.06;;;29.54;46.56
54736;BME280;40632;51.442;11.936;2022-09-09T07:07:53;99967.47;;;29.82;46.78
54736;BME280;40632;51.442;11.936;2022-09-09T07:10:18;99962.81;;;29.25;46.59
54736;BME280;40632;51.442;11.936;2022-09-09T07:12:44;99965.31;;;29.55;45.73
54736;BME280;40632;51.442;11.936;2022-09-09T07:15:10;99959.22;;;30.06;45.52
54736;BME280;40632;51.442;11.936;2022-09-09T07:17:35;99956.28;;;30.07;45.29
54736;BME280;40632;51.442;11.936;2022-09-09T07:20:04;99959.81;;;30.08;45.07
54736;BME280;40632;51.442;11.936;2022-09-09T07:22:30;99961.31;;;30.49;44.59
54736;BME280;40632;51.442;11.936;2022-09-09T07:24:55;99968.34;;;29.99;45.12
54736;BME280;40632;51.442;11.936;2022-09-09T07:27:21;99970.19;;;29.30;46.62
54736;BME280;40632;51.442;11.936;2022-09-09T07:29:47;99970.97;;;29.42;46.52
54736;BME280;40632;51.442;11.936;2022-09-09T07:32:12;99982.19;;;29.34;46.95
54736;BME280;40632;51.442;11.936;2022-09-09T07:34:38;99975.56;;;30.28;44.93
54736;BME280;40632;51.442;11.936;2022-09-09T07:37:06;99970.00;;;30.17;45.00
54736;BME280;40632;51.442;11.936;2022-09-09T07:39:32;99965.94;;;31.05;43.60
54736;BME280;40632;51.442;11.936;2022-09-09T07:41:57;99973.59;;;30.06;45.13
54736;BME280;40632;51.442;11.936;2022-09-09T07:44:24;99977.31;;;31.02;44.14
54736;BME280;40632;51.442;11.936;2022-09-09T07:46:50;99983.41;;;30.92;44.39
54736;BME280;40632;51.442;11.936;2022-09-09T07:49:16;99986.19;;;29.72;46.30
54736;BME280;40632;51.442;11.936;2022-09-09T07:51:43;99991.47;;;29.26;47.45
54736;BME280;40632;51.442;11.936;2022-09-09T07:54:14;99988.44;;;30.20;46.22
54736;BME280;40632;51.442;11.936;2022-09-09T07:56:41;99983.13;;;30.09;46.48
54736;BME280;40632;51.442;11.936;2022-09-09T07:59:08;99981.66;;;29.49;46.86
54736;BME280;40632;51.442;11.936;2022-09-09T08:01:35;99982.00;;;29.93;45.83
54736;BME280;40632;51.442;11.936;2022-09-09T08:04:03;99979.28;;;30.21;46.04
54736;BME280;40632;51.442;11.936;2022-09-09T08:06:30;99984.63;;;29.88;46.56
54736;BME280;40632;51.442;11.936;2022-09-09T08:08:56;99985.94;;;30.31;45.91
54736;BME280;40632;51.442;11.936;2022-09-09T08:11:26;99987.25;;;30.79;45.45
54736;BME280;40632;51.442;11.936;2022-09-09T08:13:53;99983.13;;;30.26;45.74
54736;BME280;40632;51.442;11.936;2022-09-09T08:16:20;99986.44;;;30.62;45.07
54736;BME280;40632;51.442;11.936;2022-09-09T08:18:46;99989.06;;;30.73;45.28
54736;BME280;40632;51.442;11.936;2022-09-09T08:21:13;99983.75;;;29.18;47.85
54736;BME280;40632;51.442;11.936;2022-09-09T08:23:40;99985.91;;;29.85;46.99
54736;BME280;40632;51.442;11.936;2022-09-09T08:26:07;99983.06;;;29.92;46.64
54736;BME280;40632;51.442;11.936;2022-09-09T08:28:35;99983.38;;;29.78;46.52
54736;BME280;40632;51.442;11.936;2022-09-09T08:31:09;99976.78;;;30.03;46.38
54736;BME280;40632;51.442;11.936;2022-09-09T08:33:36;99974.22;;;29.96;45.95
54736;BME280;40632;51.442;11.936;2022-09-09T08:36:01;99979.50;;;30.03;45.71
54736;BME280;40632;51.442;11.936;2022-09-09T08:38:27;99987.97;;;30.07;45.57
54736;BME280;40632;51.442;11.936;2022-09-09T08:40:54;99986.59;;;30.21;45.02
54736;BME280;40632;51.442;11.936;2022-09-09T08:43:23;99996.13;;;29.95;45.71
54736;BME280;40632;51.442;11.936;2022-09-09T08:45:57;99990.66;;;30.07;45.49
54736;BME280;40632;51.442;11.936;2022-09-09T08:48:39;99987.56;;;31.00;44.23
54736;BME280;40632;51.442;11.936;2022-09-09T08:51:08;99984.13;;;30.87;45.05
54736;BME280;40632;51.442;11.936;2022-09-09T08:53:38;99987.63;;;30.66;44.85
54736;BME280;40632;51.442;11.936;2022-09-09T08:56:10;99991.69;;;30.85;44.94
54736;BME280;40632;51.442;11.936;2022-09-09T08:58:43;99982.09;;;30.44;45.08
54736;BME280;40632;51.442;11.936;2022-09-09T09:01:24;99984.88;;;30.83;44.89
54736;BME280;40632;51.442;11.936;2022-09-09T09:03:57;99986.84;;;30.70;45.13
54736;BME280;40632;51.442;11.936;2022-09-09T09:06:37;99987.84;;;30.64;45.72
54736;BME280;40632;51.442;11.936;2022-09-09T09:09:12;99990.31;;;31.44;44.42
54736;BME280;40632;51.442;11.936;2022-09-09T09:11:45;99992.97;;;29.86;46.72
54736;BME280;40632;51.442;11.936;2022-09-09T09:14:14;99985.13;;;30.47;46.08
54736;BME280;40632;51.442;11.936;2022-09-09T09:16:49;99983.91;;;30.38;45.40
54736;BME280;40632;51.442;11.936;2022-09-09T09:19:16;99989.25;;;30.67;46.06
54736;BME280;40632;51.442;11.936;2022-09-09T09:21:44;99989.44;;;31.55;44.51
54736;BME280;40632;51.442;11.936;2022-09-09T09:24:16;99991.09;;;30.83;45.73
54736;BME280;40632;51.442;11.936;2022-09-09T09:26:43;99991.88;;;30.95;45.44
54736;BME280;40632;51.442;11.936;2022-09-09T09:29:11;99984.25;;;31.53;44.38
54736;BME280;40632;51.442;11.936;2022-09-09T09:31:37;99980.94;;;31.51;43.98
54736;BME280;40632;51.442;11.936;2022-09-09T09:34:07;99983.00;;;30.66;45.62
54736;BME280;40632;51.442;11.936;2022-09-09T09:36:37;99981.81;;;31.13;45.17
54736;BME280;40632;51.442;11.936;2022-09-09T09:39:04;99984.09;;;31.21;44.77
54736;BME280;40632;51.442;11.936;2022-09-09T09:41:34;99975.88;;;31.38;44.52
54736;BME280;40632;51.442;11.936;2022-09-09T09:44:01;99981.28;;;32.37;43.52
54736;BME280;40632;51.442;11.936;2022-09-09T09:46:27;99978.97;;;32.88;42.65
54736;BME280;40632;51.442;11.936;2022-09-09T09:48:57;99977.31;;;32.87;42.61
54736;BME280;40632;51.442;11.936;2022-09-09T09:51:26;99985.56;;;32.27;43.38
54736;BME280;40632;51.442;11.936;2022-09-09T09:53:53;99981.28;;;32.37;43.19
54736;BME280;40632;51.442;11.936;2022-09-09T09:56:26;99987.38;;;31.67;44.10
54736;BME280;40632;51.442;11.936;2022-09-09T09:58:53;99983.44;;;32.67;42.57
54736;BME280;40632;51.442;11.936;2022-09-09T10:01:22;99983.66;;;32.28;42.86
54736;BME280;40632;51.442;11.936;2022-09-09T10:03:51;99992.56;;;33.31;41.15
54736;BME280;40632;51.442;11.936;2022-09-09T10:06:17;99986.06;;;32.94;41.00
54736;BME280;40632;51.442;11.936;2022-09-09T10:08:46;99986.31;;;32.93;40.93
54736;BME280;40632;51.442;11.936;2022-09-09T10:11:30;99984.91;;;33.28;40.93
54736;BME280;40632;51.442;11.936;2022-09-09T10:14:07;99968.53;;;34.01;40.07
54736;BME280;40632;51.442;11.936;2022-09-09T10:16:50;99984.06;;;34.11;39.72
54736;BME280;40632;51.442;11.936;2022-09-09T10:19:25;99975.56;;;33.66;40.29
54736;BME280;40632;51.442;11.936;2022-09-09T10:22:04;99968.31;;;34.54;39.71
54736;BME280;40632;51.442;11.936;2022-09-09T10:24:44;99967.72;;;33.90;40.11
54736;BME280;40632;51.442;11.936;2022-09-09T10:27:19;99975.22;;;33.62;39.90
54736;BME280;40632;51.442;11.936;2022-09-09T10:30:01;99966.50;;;33.55;40.10
54736;BME280;40632;51.442;11.936;2022-09-09T10:32:36;99966.06;;;33.16;40.72
54736;BME280;40632;51.442;11.936;2022-09-09T10:35:08;99982.44;;;33.21;42.09
54736;BME280;40632;51.442;11.936;2022-09-09T10:37:53;99990.47;;;32.03;44.45
54736;BME280;40632;51.442;11.936;2022-09-09T10:40:32;99990.78;;;32.34;45.15
54736;BME280;40632;51.442;11.936;2022-09-09T10:43:03;99983.38;;;31.09;48.39
54736;BME280;40632;51.442;11.936;2022-09-09T10:45:37;99982.88;;;31.12;48.09
54736;BME280;40632;51.442;11.936;2022-09-09T10:48:23;99999.28;;;30.20;52.43
54736;BME280;40632;51.442;11.936;2022-09-09T10:50:59;99996.63;;;29.39;53.68
54736;BME280;40632;51.442;11.936;2022-09-09T10:53:35;99995.59;;;28.81;55.93
54736;BME280;40632;51.442;11.936;2022-09-09T10:56:07;99985.41;;;30.00;54.37
54736;BME280;40632;51.442;11.936;2022-09-09T10:58:39;99985.28;;;29.66;53.99
54736;BME280;40632;51.442;11.936;2022-09-09T11:01:13;99980.00;;;30.17;52.34
54736;BME280;40632;51.442;11.936;2022-09-09T11:03:41;99986.44;;;30.95;50.33
54736;BME280;40632;51.442;11.936;2022-09-09T11:06:12;99972.75;;;31.96;48.09
54736;BME280;40632;51.442;11.936;2022-09-09T11:08:39;99965.66;;;32.54;47.14
54736;BME280;40632;51.442;11.936;2022-09-09T11:11:10;99968.44;;;32.27;45.69
54736;BME280;40632;51.442;11.936;2022-09-09T11:13:42;99969.84;;;31.75;47.47
54736;BME280;40632;51.442;11.936;2022-09-09T11:16:19;99967.44;;;33.13;46.55
54736;BME280;40632;51.442;11.936;2022-09-09T11:18:46;99959.66;;;31.92;47.64
54736;BME280;40632;51.442;11.936;2022-09-09T11:21:18;99960.13;;;31.57;46.73
54736;BME280;40632;51.442;11.936;2022-09-09T11:23:50;99946.59;;;30.79;47.28
54736;BME280;40632;51.442;11.936;2022-09-09T11:26:29;99948.97;;;31.53;47.41
54736;BME280;40632;51.442;11.936;2022-09-09T11:29:08;99948.91;;;32.30;46.53
54736;BME280;40632;51.442;11.936;2022-09-09T11:31:44;99945.25;;;29.97;49.08
54736;BME280;40632;51.442;11.936;2022-09-09T11:34:26;99943.63;;;31.64;47.66
54736;BME280;40632;51.442;11.936;2022-09-09T11:37:20;99947.66;;;30.78;48.37
54736;BME280;40632;51.442;11.936;2022-09-09T11:40:07;99940.44;;;30.33;46.96
54736;BME280;40632;51.442;11.936;2022-09-09T11:42:36;99942.94;;;31.73;46.01
54736;BME280;40632;51.442;11.936;2022-09-09T11:45:10;99943.44;;;31.26;46.99
54736;BME280;40632;51.442;11.936;2022-09-09T11:47:36;99945.09;;;31.27;46.07
54736;BME280;40632;51.442;11.936;2022-09-09T11:50:10;99944.94;;;31.83;44.93
54736;BME280;40632;51.442;11.936;2022-09-09T11:52:38;99948.72;;;30.94;46.52
54736;BME280;40632;51.442;11.936;2022-09-09T11:55:09;99958.88;;;31.43;46.67
54736;BME280;40632;51.442;11.936;2022-09-09T11:57:38;99955.47;;;31.52;46.11
54736;BME280;40632;51.442;11.936;2022-09-09T12:00:06;99948.44;;;32.38;44.26
54736;BME280;40632;51.442;11.936;2022-09-09T12:02:31;99955.94;;;30.88;46.90
54736;BME280;40632;51.442;11.936;2022-09-09T12:05:00;99952.84;;;31.41;45.08
54736;BME280;40632;51.442;11.936;2022-09-09T12:07:32;99953.78;;;31.73;44.94
54736;BME280;40632;51.442;11.936;2022-09-09T12:10:02;99948.28;;;32.18;43.50
54736;BME280;40632;51.442;11.936;2022-09-09T12:12:30;99939.22;;;32.44;43.42
54736;BME280;40632;51.442;11.936;2022-09-09T12:15:22;99939.97;;;32.35;43.70
54736;BME280;40632;51.442;11.936;2022-09-09T12:17:49;99940.13;;;32.18;43.53
54736;BME280;40632;51.442;11.936;2022-09-09T12:20:18;99927.47;;;33.19;41.48
54736;BME280;40632;51.442;11.936;2022-09-09T12:22:52;99928.69;;;32.53;43.26
54736;BME280;40632;51.442;11.936;2022-09-09T12:25:28;99925.66;;;32.87;42.82
54736;BME280;40632;51.442;11.936;2022-09-09T12:28:05;99926.88;;;32.64;42.92
54736;BME280;40632;51.442;11.936;2022-09-09T12:30:46;99912.75;;;32.62;42.17
54736;BME280;40632;51.442;11.936;2022-09-09T12:33:17;99926.31;;;32.24;41.92
54736;BME280;40632;51.442;11.936;2022-09-09T12:35:45;99929.94;;;31.76;41.23
54736;BME280;40632;51.442;11.936;2022-09-09T12:38:16;99920.09;;;32.29;40.19
54736;BME280;40632;51.442;11.936;2022-09-09T12:40:54;99926.41;;;31.75;40.70
54736;BME280;40632;51.442;11.936;2022-09-09T12:43:22;99920.56;;;32.21;40.80
54736;BME280;40632;51.442;11.936;2022-09-09T12:45:54;99913.53;;;32.20;40.21
54736;BME280;40632;51.442;11.936;2022-09-09T12:48:21;99915.34;;;32.09;42.01
54736;BME280;40632;51.442;11.936;2022-09-09T12:50:49;99912.31;;;32.80;40.29
54736;BME280;40632;51.442;11.936;2022-09-09T12:53:22;99910.59;;;31.99;40.53
54736;BME280;40632;51.442;11.936;2022-09-09T12:55:51;99909.06;;;32.46;40.40
54736;BME280;40632;51.442;11.936;2022-09-09T12:58:18;99915.78;;;32.71;40.40
54736;BME280;40632;51.442;11.936;2022-09-09T13:00:52;99921.59;;;32.90;40.33
54736;BME280;40632;51.442;11.936;2022-09-09T13:03:19;99913.44;;;33.53;39.35
54736;BME280;40632;51.442;11.936;2022-09-09T13:05:45;99915.19;;;33.11;40.18